sensor_id;sensor_type;location;lat;lon;timestamp;P1;durP1;ratioP1;P2;durP2;ratioP2
14782;SDS011;7483;50.498;12.138;2023-06-01T00:01:38;0.13;;;0.13;;
14782;SDS011;7483;50.498;12.138;2023-06-01T00:04:06;0.10;;;0.10;;
14782;SDS011;7483;50.498;12.138;2023-06-01T00:06:34;0.10;;;0.10;;
14782;SDS011;7483;50.498;12.138;2023-06-01T00:09:02;0.10;;;0.10;;
14782;SDS011;7483;50.498;12.138;2023-06-01T00:11:31;0.20;;;0.20;;
14782;SDS011;7483;50.498;12.138;2023-06-01T00:13:58;0.10;;;0.10;;
14782;SDS011;7483;50.498;12.138;2023-06-01T00:16:26;0.20;;;0.20;;
14782;SDS011;7483;50.498;12.138;2023-06-01T00:18:55;0.10;;;0.10;;
14782;SDS011;7483;50.498;12.138;2023-06-01T00:21:22;0.20;;;0.20;;
14782;SDS011;7483;50.498;12.138;2023-06-01T00:23:50;0.20;;;0.20;;
14782;SDS011;7483;50.498;12.138;2023-06-01T00:26:18;0.15;;;0.15;;
14782;SDS011;7483;50.498;12.138;2023-06-01T00:28:50;0.10;;;0.10;;
14782;SDS011;7483;50.498;12.138;2023-06-01T00:31:18;0.20;;;0.20;;
14782;SDS011;7483;50.498;12.138;2023-06-01T00:33:46;0.10;;;0.10;;
14782;SDS011;7483;50.498;12.138;2023-06-01T00:36:13;0.10;;;0.10;;
14782;SDS011;7483;50.498;12.138;2023-06-01T00:38:41;0.13;;;0.13;;
14782;SDS011;7483;50.498;12.138;2023-06-01T00:41:09;0.22;;;0.22;;
14782;SDS011;7483;50.498;12.138;2023-06-01T00:43:36;0.20;;;0.20;;
14782;SDS011;7483;50.498;12.138;2023-06-01T00:46:06;0.10;;;0.10;;
14782;SDS011;7483;50.498;12.138;2023-06-01T00:48:34;0.10;;;0.10;;
14782;SDS011;7483;50.498;12.138;2023-06-01T00:51:02;0.28;;;0.28;;
14782;SDS011;7483;50.498;12.138;2023-06-01T00:53:30;0.20;;;0.20;;
14782;SDS011;7483;50.498;12.138;2023-06-01T00:55:57;0.20;;;0.20;;
14782;SDS011;7483;50.498;12.138;2023-06-01T00:58:25;0.10;;;0.10;;
14782;SDS011;7483;50.498;12.138;2023-06-01T01:00:53;0.10;;;0.10;;
14782;SDS011;7483;50.498;12.138;2023-06-01T01:03:22;0.17;;;0.17;;
14782;SDS011;7483;50.498;12.138;2023-06-01T01:05:52;0.20;;;0.20;;
14782;SDS011;7483;50.498;12.138;2023-06-01T01:08:41;0.10;;;0.10;;
14782;SDS011;7483;50.498;12.138;2023-06-01T01:11:15;0.20;;;0.20;;
14782;SDS011;7483;50.498;12.138;2023-06-01T01:13:47;0.20;;;0.20;;
14782;SDS011;7483;50.498;12.138;2023-06-01T01:16:17;0.20;;;0.20;;
14782;SDS011;7483;50.498;12.138;2023-06-01T01:18:54;0.10;;;0.10;;
14782;SDS011;7483;50.498;12.138;2023-06-01T01:21:25;0.17;;;0.17;;
14782;SDS011;7483;50.498;12.138;2023-06-01T01:26:40;0.20;;;0.20;;
14782;SDS011;7483;50.498;12.138;2023-06-01T01:29:13;0.20;;;0.20;;
14782;SDS011;7483;50.498;12.138;2023-06-01T01:31:41;0.10;;;0.10;;
14782;SDS011;7483;50.498;12.138;2023-06-01T01:34:10;0.20;;;0.20;;
14782;SDS011;7483;50.498;12.138;2023-06-01T01:36:38;0.10;;;0.10;;
14782;SDS011;7483;50.498;12.138;2023-06-01T01:39:05;0.17;;;0.17;;
14782;SDS011;7483;50.498;12.138;2023-06-01T01:41:33;0.10;;;0.10;;
14782;SDS011;7483;50.498;12.138;2023-06-01T01:44:01;0.10;;;0.10;;
14782;SDS011;7483;50.498;12.138;2023-06-01T01:46:32;0.25;;;0.25;;
14782;SDS011;7483;50.498;12.138;2023-06-01T01:49:07;0.20;;;0.20;;
14782;SDS011;7483;50.498;12.138;2023-06-01T01:51:37;0.17;;;0.17;;
14782;SDS011;7483;50.498;12.138;2023-06-01T01:54:09;0.10;;;0.10;;
14782;SDS011;7483;50.498;12.138;2023-06-01T01:56:37;0.15;;;0.15;;
14782;SDS011;7483;50.498;12.138;2023-06-01T01:59:06;0.20;;;0.20;;
14782;SDS011;7483;50.498;12.138;2023-06-01T02:01:35;0.10;;;0.10;;
14782;SDS011;7483;50.498;12.138;2023-06-01T02:04:04;0.20;;;0.20;;
14782;SDS011;7483;50.498;12.138;2023-06-01T02:06:34;0.20;;;0.20;;
14782;SDS011;7483;50.498;12.138;2023-06-01T02:09:02;0.10;;;0.10;;
14782;SDS011;7483;50.498;12.138;2023-06-01T02:11:33;0.20;;;0.20;;
14782;SDS011;7483;50.498;12.138;2023-06-01T02:14:01;0.10;;;0.10;;
14782;SDS011;7483;50.498;12.138;2023-06-01T02:16:28;0.15;;;0.15;;
14782;SDS011;7483;50.498;12.138;2023-06-01T02:18:58;0.10;;;0.10;;
14782;SDS011;7483;50.498;12.138;2023-06-01T02:21:25;0.13;;;0.13;;
14782;SDS011;7483;50.498;12.138;2023-06-01T02:23:58;0.10;;;0.10;;
14782;SDS011;7483;50.498;12.138;2023-06-01T02:26:30;0.20;;;0.20;;
14782;SDS011;7483;50.498;12.138;2023-06-01T02:28:58;0.10;;;0.10;;
14782;SDS011;7483;50.498;12.138;2023-06-01T02:31:25;0.10;;;0.10;;
14782;SDS011;7483;50.498;12.138;2023-06-01T02:33:53;0.10;;;0.10;;
14782;SDS011;7483;50.498;12.138;2023-06-01T02:36:23;0.20;;;0.20;;
14782;SDS011;7483;50.498;12.138;2023-06-01T02:38:51;0.10;;;0.10;;
14782;SDS011;7483;50.498;12.138;2023-06-01T02:41:22;0.13;;;0.13;;
14782;SDS011;7483;50.498;12.138;2023-06-01T02:43:50;0.10;;;0.10;;
14782;SDS011;7483;50.498;12.138;2023-06-01T02:46:18;0.10;;;0.10;;
14782;SDS011;7483;50.498;12.138;2023-06-01T02:48:47;0.20;;;0.20;;
14782;SDS011;7483;50.498;12.138;2023-06-01T02:51:15;0.13;;;0.13;;
14782;SDS011;7483;50.498;12.138;2023-06-01T02:53:49;0.20;;;0.20;;
14782;SDS011;7483;50.498;12.138;2023-06-01T02:56:17;0.20;;;0.20;;
14782;SDS011;7483;50.498;12.138;2023-06-01T02:58:53;0.10;;;0.10;;
14782;SDS011;7483;50.498;12.138;2023-06-01T03:01:28;0.20;;;0.20;;
14782;SDS011;7483;50.498;12.138;2023-06-01T03:04:03;0.10;;;0.10;;
14782;SDS011;7483;50.498;12.138;2023-06-01T03:06:32;0.20;;;0.20;;
14782;SDS011;7483;50.498;12.138;2023-06-01T03:09:24;0.10;;;0.10;;
14782;SDS011;7483;50.498;12.138;2023-06-01T03:11:55;0.28;;;0.28;;
14782;SDS011;7483;50.498;12.138;2023-06-01T03:14:23;0.13;;;0.13;;
14782;SDS011;7483;50.498;12.138;2023-06-01T03:16:50;0.20;;;0.20;;
14782;SDS011;7483;50.498;12.138;2023-06-01T03:19:20;0.20;;;0.20;;
14782;SDS011;7483;50.498;12.138;2023-06-01T03:21:51;0.32;;;0.32;;
14782;SDS011;7483;50.498;12.138;2023-06-01T03:24:23;0.10;;;0.10;;
14782;SDS011;7483;50.498;12.138;2023-06-01T03:26:57;0.22;;;0.22;;
14782;SDS011;7483;50.498;12.138;2023-06-01T03:29:26;0.15;;;0.15;;
14782;SDS011;7483;50.498;12.138;2023-06-01T03:31:54;0.10;;;0.10;;
14782;SDS011;7483;50.498;12.138;2023-06-01T03:34:23;0.20;;;0.20;;
14782;SDS011;7483;50.498;12.138;2023-06-01T03:36:50;0.10;;;0.10;;
14782;SDS011;7483;50.498;12.138;2023-06-01T03:39:18;0.10;;;0.10;;
14782;SDS011;7483;50.498;12.138;2023-06-01T03:41:47;0.20;;;0.20;;
14782;SDS011;7483;50.498;12.138;2023-06-01T03:44:15;0.20;;;0.20;;
14782;SDS011;7483;50.498;12.138;2023-06-01T03:46:44;0.20;;;0.20;;
14782;SDS011;7483;50.498;12.138;2023-06-01T03:49:12;0.10;;;0.10;;
14782;SDS011;7483;50.498;12.138;2023-06-01T03:51:40;0.20;;;0.20;;
14782;SDS011;7483;50.498;12.138;2023-06-01T03:54:08;0.20;;;0.20;;
14782;SDS011;7483;50.498;12.138;2023-06-01T03:56:36;0.20;;;0.20;;
14782;SDS011;7483;50.498;12.138;2023-06-01T03:59:05;0.22;;;0.22;;
14782;SDS011;7483;50.498;12.138;2023-06-01T04:01:38;0.15;;;0.15;;
14782;SDS011;7483;50.498;12.138;2023-06-01T04:04:06;0.15;;;0.15;;
14782;SDS011;7483;50.498;12.138;2023-06-01T04:06:35;0.10;;;0.10;;
14782;SDS011;7483;50.498;12.138;2023-06-01T04:09:03;0.20;;;0.20;;
14782;SDS011;7483;50.498;12.138;2023-06-01T04:11:34;0.20;;;0.20;;
14782;SDS011;7483;50.498;12.138;2023-06-01T04:14:01;0.10;;;0.10;;
14782;SDS011;7483;50.498;12.138;2023-06-01T04:16:31;0.20;;;0.20;;
14782;SDS011;7483;50.498;12.138;2023-06-01T04:18:59;0.30;;;0.30;;
14782;SDS011;7483;50.498;12.138;2023-06-01T04:21:30;0.20;;;0.20;;
14782;SDS011;7483;50.498;12.138;2023-06-01T04:23:59;0.10;;;0.10;;
14782;SDS011;7483;50.498;12.138;2023-06-01T04:26:27;0.10;;;0.10;;
14782;SDS011;7483;50.498;12.138;2023-06-01T04:28:55;0.10;;;0.10;;
14782;SDS011;7483;50.498;12.138;2023-06-01T04:31:24;0.20;;;0.20;;
14782;SDS011;7483;50.498;12.138;2023-06-01T04:33:53;0.20;;;0.20;;
14782;SDS011;7483;50.498;12.138;2023-06-01T04:36:23;0.20;;;0.20;;
14782;SDS011;7483;50.498;12.138;2023-06-01T04:38:55;0.30;;;0.20;;
14782;SDS011;7483;50.498;12.138;2023-06-01T04:41:23;0.20;;;0.20;;
14782;SDS011;7483;50.498;12.138;2023-06-01T04:43:52;0.20;;;0.20;;
14782;SDS011;7483;50.498;12.138;2023-06-01T04:46:22;0.20;;;0.20;;
14782;SDS011;7483;50.498;12.138;2023-06-01T04:48:57;0.10;;;0.10;;
14782;SDS011;7483;50.498;12.138;2023-06-01T04:51:27;0.20;;;0.20;;
14782;SDS011;7483;50.498;12.138;2023-06-01T04:53:57;0.20;;;0.20;;
14782;SDS011;7483;50.498;12.138;2023-06-01T04:56:25;0.20;;;0.20;;
14782;SDS011;7483;50.498;12.138;2023-06-01T04:58:54;0.10;;;0.10;;
14782;SDS011;7483;50.498;12.138;2023-06-01T05:01:25;0.17;;;0.17;;
14782;SDS011;7483;50.498;12.138;2023-06-01T05:03:57;0.20;;;0.20;;
14782;SDS011;7483;50.498;12.138;2023-06-01T05:06:26;0.10;;;0.10;;
14782;SDS011;7483;50.498;12.138;2023-06-01T05:08:53;0.20;;;0.20;;
14782;SDS011;7483;50.498;12.138;2023-06-01T05:11:23;0.20;;;0.20;;
14782;SDS011;7483;50.498;12.138;2023-06-01T05:13:51;0.20;;;0.20;;
14782;SDS011;7483;50.498;12.138;2023-06-01T05:16:19;0.25;;;0.25;;
14782;SDS011;7483;50.498;12.138;2023-06-01T05:18:49;0.30;;;0.30;;
14782;SDS011;7483;50.498;12.138;2023-06-01T05:21:19;0.20;;;0.20;;
14782;SDS011;7483;50.498;12.138;2023-06-01T05:23:47;0.17;;;0.17;;
14782;SDS011;7483;50.498;12.138;2023-06-01T05:26:14;0.20;;;0.20;;
14782;SDS011;7483;50.498;12.138;2023-06-01T05:28:42;0.10;;;0.10;;
14782;SDS011;7483;50.498;12.138;2023-06-01T05:31:10;0.17;;;0.17;;
14782;SDS011;7483;50.498;12.138;2023-06-01T05:33:43;0.30;;;0.20;;
14782;SDS011;7483;50.498;12.138;2023-06-01T05:36:11;0.20;;;0.20;;
14782;SDS011;7483;50.498;12.138;2023-06-01T05:38:40;0.20;;;0.20;;
14782;SDS011;7483;50.498;12.138;2023-06-01T05:41:08;0.10;;;0.10;;
14782;SDS011;7483;50.498;12.138;2023-06-01T05:43:35;0.10;;;0.10;;
14782;SDS011;7483;50.498;12.138;2023-06-01T05:46:04;0.20;;;0.20;;
14782;SDS011;7483;50.498;12.138;2023-06-01T05:48:33;0.10;;;0.10;;
14782;SDS011;7483;50.498;12.138;2023-06-01T05:51:03;0.15;;;0.15;;
14782;SDS011;7483;50.498;12.138;2023-06-01T05:53:31;0.20;;;0.20;;
14782;SDS011;7483;50.498;12.138;2023-06-01T05:56:00;0.20;;;0.20;;
14782;SDS011;7483;50.498;12.138;2023-06-01T05:58:29;0.10;;;0.10;;
14782;SDS011;7483;50.498;12.138;2023-06-01T06:00:57;0.20;;;0.20;;
14782;SDS011;7483;50.498;12.138;2023-06-01T06:03:25;0.10;;;0.10;;
14782;SDS011;7483;50.498;12.138;2023-06-01T06:05:54;0.20;;;0.20;;
14782;SDS011;7483;50.498;12.138;2023-06-01T06:08:21;0.15;;;0.15;;
14782;SDS011;7483;50.498;12.138;2023-06-01T06:10:49;0.10;;;0.10;;
14782;SDS011;7483;50.498;12.138;2023-06-01T06:13:18;0.20;;;0.20;;
14782;SDS011;7483;50.498;12.138;2023-06-01T06:15:46;0.20;;;0.20;;
14782;SDS011;7483;50.498;12.138;2023-06-01T06:18:14;0.20;;;0.20;;
14782;SDS011;7483;50.498;12.138;2023-06-01T06:20:41;0.13;;;0.13;;
14782;SDS011;7483;50.498;12.138;2023-06-01T06:23:09;0.20;;;0.20;;
14782;SDS011;7483;50.498;12.138;2023-06-01T06:25:37;0.30;;;0.30;;
14782;SDS011;7483;50.498;12.138;2023-06-01T06:28:06;0.10;;;0.10;;
14782;SDS011;7483;50.498;12.138;2023-06-01T06:30:35;0.10;;;0.10;;
14782;SDS011;7483;50.498;12.138;2023-06-01T06:33:03;0.20;;;0.20;;
14782;SDS011;7483;50.498;12.138;2023-06-01T06:35:35;0.20;;;0.20;;
14782;SDS011;7483;50.498;12.138;2023-06-01T06:38:05;0.10;;;0.10;;
14782;SDS011;7483;50.498;12.138;2023-06-01T06:40:32;0.17;;;0.17;;
14782;SDS011;7483;50.498;12.138;2023-06-01T06:43:00;0.20;;;0.20;;
14782;SDS011;7483;50.498;12.138;2023-06-01T06:45:27;0.25;;;0.13;;
14782;SDS011;7483;50.498;12.138;2023-06-01T06:47:56;0.10;;;0.10;;
14782;SDS011;7483;50.498;12.138;2023-06-01T06:50:24;0.20;;;0.20;;
14782;SDS011;7483;50.498;12.138;2023-06-01T06:52:52;0.30;;;0.30;;
14782;SDS011;7483;50.498;12.138;2023-06-01T06:55:19;0.22;;;0.22;;
14782;SDS011;7483;50.498;12.138;2023-06-01T06:57:48;0.10;;;0.10;;
14782;SDS011;7483;50.498;12.138;2023-06-01T07:00:16;0.20;;;0.20;;
14782;SDS011;7483;50.498;12.138;2023-06-01T07:02:45;0.03;;;0.03;;
14782;SDS011;7483;50.498;12.138;2023-06-01T07:05:14;0.10;;;0.10;;
14782;SDS011;7483;50.498;12.138;2023-06-01T07:07:42;0.10;;;0.10;;
14782;SDS011;7483;50.498;12.138;2023-06-01T07:10:09;0.10;;;0.10;;
14782;SDS011;7483;50.498;12.138;2023-06-01T07:12:37;0.10;;;0.10;;
14782;SDS011;7483;50.498;12.138;2023-06-01T07:15:05;0.10;;;0.10;;
14782;SDS011;7483;50.498;12.138;2023-06-01T07:17:33;0.10;;;0.10;;
14782;SDS011;7483;50.498;12.138;2023-06-01T07:20:02;0.20;;;0.20;;
14782;SDS011;7483;50.498;12.138;2023-06-01T07:22:33;0.10;;;0.10;;
14782;SDS011;7483;50.498;12.138;2023-06-01T07:25:01;0.13;;;0.10;;
14782;SDS011;7483;50.498;12.138;2023-06-01T07:27:29;0.08;;;0.08;;
14782;SDS011;7483;50.498;12.138;2023-06-01T07:29:56;0.15;;;0.15;;
14782;SDS011;7483;50.498;12.138;2023-06-01T07:32:24;0.20;;;0.20;;
14782;SDS011;7483;50.498;12.138;2023-06-01T07:34:52;0.15;;;0.15;;
14782;SDS011;7483;50.498;12.138;2023-06-01T07:37:20;0.00;;;0.00;;
14782;SDS011;7483;50.498;12.138;2023-06-01T07:39:49;0.10;;;0.10;;
14782;SDS011;7483;50.498;12.138;2023-06-01T07:42:17;0.10;;;0.10;;
14782;SDS011;7483;50.498;12.138;2023-06-01T07:44:46;0.10;;;0.10;;
14782;SDS011;7483;50.498;12.138;2023-06-01T07:47:14;0.10;;;0.10;;
14782;SDS011;7483;50.498;12.138;2023-06-01T07:49:41;0.10;;;0.10;;
14782;SDS011;7483;50.498;12.138;2023-06-01T07:52:09;0.10;;;0.10;;
14782;SDS011;7483;50.498;12.138;2023-06-01T07:54:37;0.10;;;0.10;;
14782;SDS011;7483;50.498;12.138;2023-06-01T07:57:06;0.10;;;0.10;;
14782;SDS011;7483;50.498;12.138;2023-06-01T07:59:34;0.00;;;0.00;;
14782;SDS011;7483;50.498;12.138;2023-06-01T08:02:01;0.10;;;0.10;;
14782;SDS011;7483;50.498;12.138;2023-06-01T08:04:29;0.10;;;0.10;;
14782;SDS011;7483;50.498;12.138;2023-06-01T08:07:00;0.00;;;0.00;;
14782;SDS011;7483;50.498;12.138;2023-06-01T08:09:30;0.10;;;0.10;;
14782;SDS011;7483;50.498;12.138;2023-06-01T08:11:58;0.10;;;0.10;;
14782;SDS011;7483;50.498;12.138;2023-06-01T08:14:27;0.10;;;0.10;;
14782;SDS011;7483;50.498;12.138;2023-06-01T08:16:55;0.10;;;0.10;;
14782;SDS011;7483;50.498;12.138;2023-06-01T08:19:23;0.10;;;0.10;;
14782;SDS011;7483;50.498;12.138;2023-06-01T08:21:53;0.10;;;0.10;;
14782;SDS011;7483;50.498;12.138;2023-06-01T08:24:21;0.10;;;0.10;;
14782;SDS011;7483;50.498;12.138;2023-06-01T08:26:54;0.10;;;0.10;;
14782;SDS011;7483;50.498;12.138;2023-06-01T08:29:22;0.10;;;0.10;;
14782;SDS011;7483;50.498;12.138;2023-06-01T08:32:08;0.03;;;0.03;;
14782;SDS011;7483;50.498;12.138;2023-06-01T08:34:36;0.10;;;0.10;;
14782;SDS011;7483;50.498;12.138;2023-06-01T08:37:04;0.00;;;0.00;;
14782;SDS011;7483;50.498;12.138;2023-06-01T08:39:32;0.10;;;0.10;;
14782;SDS011;7483;50.498;12.138;2023-06-01T08:42:03;0.05;;;0.05;;
14782;SDS011;7483;50.498;12.138;2023-06-01T08:44:38;0.10;;;0.10;;
14782;SDS011;7483;50.498;12.138;2023-06-01T08:47:06;0.10;;;0.10;;
14782;SDS011;7483;50.498;12.138;2023-06-01T08:49:36;0.13;;;0.10;;
14782;SDS011;7483;50.498;12.138;2023-06-01T08:52:07;0.10;;;0.10;;
14782;SDS011;7483;50.498;12.138;2023-06-01T08:54:36;0.10;;;0.10;;
14782;SDS011;7483;50.498;12.138;2023-06-01T08:57:05;0.10;;;0.10;;
14782;SDS011;7483;50.498;12.138;2023-06-01T08:59:34;0.00;;;0.00;;
14782;SDS011;7483;50.498;12.138;2023-06-01T09:02:02;0.10;;;0.10;;
14782;SDS011;7483;50.498;12.138;2023-06-01T09:04:32;0.10;;;0.10;;
14782;SDS011;7483;50.498;12.138;2023-06-01T09:07:03;0.10;;;0.10;;
14782;SDS011;7483;50.498;12.138;2023-06-01T09:09:31;0.15;;;0.15;;
14782;SDS011;7483;50.498;12.138;2023-06-01T09:12:15;0.10;;;0.10;;
14782;SDS011;7483;50.498;12.138;2023-06-01T09:14:44;0.00;;;0.00;;
14782;SDS011;7483;50.498;12.138;2023-06-01T09:17:12;0.10;;;0.10;;
14782;SDS011;7483;50.498;12.138;2023-06-01T09:19:42;0.00;;;0.00;;
14782;SDS011;7483;50.498;12.138;2023-06-01T09:22:11;0.10;;;0.10;;
14782;SDS011;7483;50.498;12.138;2023-06-01T09:24:39;0.00;;;0.00;;
14782;SDS011;7483;50.498;12.138;2023-06-01T09:27:07;0.10;;;0.10;;
14782;SDS011;7483;50.498;12.138;2023-06-01T09:29:35;0.00;;;0.00;;
14782;SDS011;7483;50.498;12.138;2023-06-01T09:32:03;0.00;;;0.00;;
14782;SDS011;7483;50.498;12.138;2023-06-01T09:34:31;0.03;;;0.03;;
14782;SDS011;7483;50.498;12.138;2023-06-01T09:37:05;0.08;;;0.08;;
14782;SDS011;7483;50.498;12.138;2023-06-01T09:39:34;0.00;;;0.00;;
14782;SDS011;7483;50.498;12.138;2023-06-01T09:42:01;0.00;;;0.00;;
14782;SDS011;7483;50.498;12.138;2023-06-01T09:44:30;0.00;;;0.00;;
14782;SDS011;7483;50.498;12.138;2023-06-01T09:46:58;0.00;;;0.00;;
14782;SDS011;7483;50.498;12.138;2023-06-01T09:49:28;0.00;;;0.00;;
14782;SDS011;7483;50.498;12.138;2023-06-01T09:52:09;0.00;;;0.00;;
14782;SDS011;7483;50.498;12.138;2023-06-01T09:54:42;0.10;;;0.10;;
14782;SDS011;7483;50.498;12.138;2023-06-01T09:57:10;0.00;;;0.00;;
14782;SDS011;7483;50.498;12.138;2023-06-01T09:59:39;0.00;;;0.00;;
14782;SDS011;7483;50.498;12.138;2023-06-01T10:02:11;0.00;;;0.00;;
14782;SDS011;7483;50.498;12.138;2023-06-01T10:04:41;0.00;;;0.00;;
14782;SDS011;7483;50.498;12.138;2023-06-01T10:07:10;0.00;;;0.00;;
14782;SDS011;7483;50.498;12.138;2023-06-01T10:09:40;0.08;;;0.00;;
14782;SDS011;7483;50.498;12.138;2023-06-01T10:12:09;0.10;;;0.08;;
14782;SDS011;7483;50.498;12.138;2023-06-01T10:14:37;0.00;;;0.00;;
14782;SDS011;7483;50.498;12.138;2023-06-01T10:17:05;0.00;;;0.00;;
14782;SDS011;7483;50.498;12.138;2023-06-01T10:19:35;0.00;;;0.00;;
14782;SDS011;7483;50.498;12.138;2023-06-01T10:22:04;0.00;;;0.00;;
14782;SDS011;7483;50.498;12.138;2023-06-01T10:24:34;0.10;;;0.10;;
14782;SDS011;7483;50.498;12.138;2023-06-01T10:27:10;0.10;;;0.10;;
14782;SDS011;7483;50.498;12.138;2023-06-01T10:29:41;0.00;;;0.00;;
14782;SDS011;7483;50.498;12.138;2023-06-01T10:38:28;0.00;;;0.00;;
14782;SDS011;7483;50.498;12.138;2023-06-01T10:43:59;0.10;;;0.10;;
14782;SDS011;7483;50.498;12.138;2023-06-01T10:46:39;0.00;;;0.00;;
14782;SDS011;7483;50.498;12.138;2023-06-01T10:49:11;0.00;;;0.00;;
14782;SDS011;7483;50.498;12.138;2023-06-01T10:51:39;0.00;;;0.00;;
14782;SDS011;7483;50.498;12.138;2023-06-01T10:54:25;0.00;;;0.00;;
14782;SDS011;7483;50.498;12.138;2023-06-01T11:02:45;0.10;;;0.10;;
14782;SDS011;7483;50.498;12.138;2023-06-01T11:11:16;0.00;;;0.00;;
14782;SDS011;7483;50.498;12.138;2023-06-01T11:16:34;0.03;;;0.03;;
14782;SDS011;7483;50.498;12.138;2023-06-01T11:19:03;0.10;;;0.03;;
14782;SDS011;7483;50.498;12.138;2023-06-01T11:21:33;0.00;;;0.00;;
14782;SDS011;7483;50.498;12.138;2023-06-01T11:24:06;0.10;;;0.10;;
14782;SDS011;7483;50.498;12.138;2023-06-01T11:26:36;0.10;;;0.00;;
14782;SDS011;7483;50.498;12.138;2023-06-01T11:29:08;0.00;;;0.00;;
14782;SDS011;7483;50.498;12.138;2023-06-01T11:31:38;0.00;;;0.00;;
14782;SDS011;7483;50.498;12.138;2023-06-01T11:34:07;0.00;;;0.00;;
14782;SDS011;7483;50.498;12.138;2023-06-01T11:36:36;0.00;;;0.00;;
14782;SDS011;7483;50.498;12.138;2023-06-01T11:39:05;0.00;;;0.00;;
14782;SDS011;7483;50.498;12.138;2023-06-01T11:41:46;0.00;;;0.00;;
14782;SDS011;7483;50.498;12.138;2023-06-01T11:44:15;0.00;;;0.00;;
14782;SDS011;7483;50.498;12.138;2023-06-01T11:46:52;0.00;;;0.00;;
14782;SDS011;7483;50.498;12.138;2023-06-01T11:49:21;0.05;;;0.00;;
14782;SDS011;7483;50.498;12.138;2023-06-01T11:51:49;0.00;;;0.00;;
14782;SDS011;7483;50.498;12.138;2023-06-01T11:54:22;0.10;;;0.10;;
14782;SDS011;7483;50.498;12.138;2023-06-01T11:56:50;0.00;;;0.00;;
14782;SDS011;7483;50.498;12.138;2023-06-01T12:01:51;0.10;;;0.00;;
14782;SDS011;7483;50.498;12.138;2023-06-01T12:04:21;0.00;;;0.00;;
14782;SDS011;7483;50.498;12.138;2023-06-01T12:06:51;0.00;;;0.00;;
14782;SDS011;7483;50.498;12.138;2023-06-01T12:09:31;0.05;;;0.05;;
14782;SDS011;7483;50.498;12.138;2023-06-01T12:12:00;0.00;;;0.00;;
14782;SDS011;7483;50.498;12.138;2023-06-01T12:14:29;0.00;;;0.00;;
14782;SDS011;7483;50.498;12.138;2023-06-01T12:16:57;0.00;;;0.00;;
14782;SDS011;7483;50.498;12.138;2023-06-01T12:19:27;0.00;;;0.00;;
14782;SDS011;7483;50.498;12.138;2023-06-01T12:21:56;0.00;;;0.00;;
14782;SDS011;7483;50.498;12.138;2023-06-01T12:24:27;0.10;;;0.10;;
14782;SDS011;7483;50.498;12.138;2023-06-01T12:29:35;0.00;;;0.00;;
14782;SDS011;7483;50.498;12.138;2023-06-01T12:32:04;0.00;;;0.00;;
14782;SDS011;7483;50.498;12.138;2023-06-01T12:34:32;0.00;;;0.00;;
14782;SDS011;7483;50.498;12.138;2023-06-01T12:37:10;0.10;;;0.08;;
14782;SDS011;7483;50.498;12.138;2023-06-01T12:39:38;0.00;;;0.00;;
14782;SDS011;7483;50.498;12.138;2023-06-01T12:42:08;0.00;;;0.00;;
14782;SDS011;7483;50.498;12.138;2023-06-01T12:44:38;0.00;;;0.00;;
14782;SDS011;7483;50.498;12.138;2023-06-01T12:47:08;0.00;;;0.00;;
14782;SDS011;7483;50.498;12.138;2023-06-01T12:49:35;0.00;;;0.00;;
14782;SDS011;7483;50.498;12.138;2023-06-01T12:52:04;0.00;;;0.00;;
14782;SDS011;7483;50.498;12.138;2023-06-01T12:54:32;0.00;;;0.00;;
14782;SDS011;7483;50.498;12.138;2023-06-01T12:57:00;0.00;;;0.00;;
14782;SDS011;7483;50.498;12.138;2023-06-01T12:59:28;0.00;;;0.00;;
14782;SDS011;7483;50.498;12.138;2023-06-01T13:01:57;0.00;;;0.00;;
14782;SDS011;7483;50.498;12.138;2023-06-01T13:04:24;0.00;;;0.00;;
14782;SDS011;7483;50.498;12.138;2023-06-01T13:06:52;0.00;;;0.00;;
14782;SDS011;7483;50.498;12.138;2023-06-01T13:09:20;0.00;;;0.00;;
14782;SDS011;7483;50.498;12.138;2023-06-01T13:11:47;0.00;;;0.00;;
14782;SDS011;7483;50.498;12.138;2023-06-01T13:14:16;0.00;;;0.00;;
14782;SDS011;7483;50.498;12.138;2023-06-01T13:16:44;0.00;;;0.00;;
14782;SDS011;7483;50.498;12.138;2023-06-01T13:19:13;0.00;;;0.00;;
14782;SDS011;7483;50.498;12.138;2023-06-01T13:21:41;0.00;;;0.00;;
14782;SDS011;7483;50.498;12.138;2023-06-01T13:24:08;0.00;;;0.00;;
14782;SDS011;7483;50.498;12.138;2023-06-01T13:26:37;0.00;;;0.00;;
14782;SDS011;7483;50.498;12.138;2023-06-01T13:29:04;0.00;;;0.00;;
14782;SDS011;7483;50.498;12.138;2023-06-01T13:31:32;0.13;;;0.00;;
14782;SDS011;7483;50.498;12.138;2023-06-01T13:34:02;0.00;;;0.00;;
14782;SDS011;7483;50.498;12.138;2023-06-01T13:36:31;0.00;;;0.00;;
14782;SDS011;7483;50.498;12.138;2023-06-01T13:38:59;0.00;;;0.00;;
14782;SDS011;7483;50.498;12.138;2023-06-01T13:41:27;0.00;;;0.00;;
14782;SDS011;7483;50.498;12.138;2023-06-01T13:43:56;0.00;;;0.00;;
14782;SDS011;7483;50.498;12.138;2023-06-01T13:46:24;0.00;;;0.00;;
14782;SDS011;7483;50.498;12.138;2023-06-01T13:48:52;0.10;;;0.00;;
14782;SDS011;7483;50.498;12.138;2023-06-01T13:51:20;0.10;;;0.03;;
14782;SDS011;7483;50.498;12.138;2023-06-01T13:53:50;0.00;;;0.00;;
14782;SDS011;7483;50.498;12.138;2023-06-01T13:56:18;0.00;;;0.00;;
14782;SDS011;7483;50.498;12.138;2023-06-01T13:58:47;0.10;;;0.08;;
14782;SDS011;7483;50.498;12.138;2023-06-01T14:01:15;0.00;;;0.00;;
14782;SDS011;7483;50.498;12.138;2023-06-01T14:03:42;0.00;;;0.00;;
14782;SDS011;7483;50.498;12.138;2023-06-01T14:06:10;0.00;;;0.00;;
14782;SDS011;7483;50.498;12.138;2023-06-01T14:08:38;0.00;;;0.00;;
14782;SDS011;7483;50.498;12.138;2023-06-01T14:11:07;0.00;;;0.00;;
14782;SDS011;7483;50.498;12.138;2023-06-01T14:13:34;0.00;;;0.00;;
14782;SDS011;7483;50.498;12.138;2023-06-01T14:16:02;0.00;;;0.00;;
14782;SDS011;7483;50.498;12.138;2023-06-01T14:18:30;0.03;;;0.03;;
14782;SDS011;7483;50.498;12.138;2023-06-01T14:20:58;0.00;;;0.00;;
14782;SDS011;7483;50.498;12.138;2023-06-01T14:23:26;0.00;;;0.00;;
14782;SDS011;7483;50.498;12.138;2023-06-01T14:25:53;0.00;;;0.00;;
14782;SDS011;7483;50.498;12.138;2023-06-01T14:28:22;0.00;;;0.00;;
14782;SDS011;7483;50.498;12.138;2023-06-01T14:30:50;0.00;;;0.00;;
14782;SDS011;7483;50.498;12.138;2023-06-01T14:33:18;0.00;;;0.00;;
14782;SDS011;7483;50.498;12.138;2023-06-01T14:35:45;0.00;;;0.00;;
14782;SDS011;7483;50.498;12.138;2023-06-01T14:38:13;0.00;;;0.00;;
14782;SDS011;7483;50.498;12.138;2023-06-01T14:40:41;0.00;;;0.00;;
14782;SDS011;7483;50.498;12.138;2023-06-01T14:43:08;0.03;;;0.00;;
14782;SDS011;7483;50.498;12.138;2023-06-01T14:45:37;0.00;;;0.00;;
14782;SDS011;7483;50.498;12.138;2023-06-01T14:48:05;0.03;;;0.00;;
14782;SDS011;7483;50.498;12.138;2023-06-01T14:50:33;0.00;;;0.00;;
14782;SDS011;7483;50.498;12.138;2023-06-01T14:53:00;0.00;;;0.00;;
14782;SDS011;7483;50.498;12.138;2023-06-01T14:55:28;0.10;;;0.10;;
14782;SDS011;7483;50.498;12.138;2023-06-01T14:57:55;0.00;;;0.00;;
14782;SDS011;7483;50.498;12.138;2023-06-01T15:00:23;0.00;;;0.00;;
14782;SDS011;7483;50.498;12.138;2023-06-01T15:02:52;0.00;;;0.00;;
14782;SDS011;7483;50.498;12.138;2023-06-01T15:05:20;0.00;;;0.00;;
14782;SDS011;7483;50.498;12.138;2023-06-01T15:07:48;0.00;;;0.00;;
14782;SDS011;7483;50.498;12.138;2023-06-01T15:10:15;0.10;;;0.10;;
14782;SDS011;7483;50.498;12.138;2023-06-01T15:12:43;0.00;;;0.00;;
14782;SDS011;7483;50.498;12.138;2023-06-01T15:15:10;0.00;;;0.00;;
14782;SDS011;7483;50.498;12.138;2023-06-01T15:17:38;0.00;;;0.00;;
14782;SDS011;7483;50.498;12.138;2023-06-01T15:20:08;0.00;;;0.00;;
14782;SDS011;7483;50.498;12.138;2023-06-01T15:22:36;0.00;;;0.00;;
14782;SDS011;7483;50.498;12.138;2023-06-01T15:25:04;0.00;;;0.00;;
14782;SDS011;7483;50.498;12.138;2023-06-01T15:27:33;0.20;;;0.10;;
14782;SDS011;7483;50.498;12.138;2023-06-01T15:30:02;0.00;;;0.00;;
14782;SDS011;7483;50.498;12.138;2023-06-01T15:32:30;0.00;;;0.00;;